Time;durP1;ratioP1;P1;durP2;ratioP2;P2;SDS_P1;SDS_P2;PMS_P1;PMS_P2;Temp;Humidity;BMP_temperature;BMP_pressure;BME280_temperature;BME280_humidity;BME280_pressure;Samples;Min_cycle;Max_cycle;Signal;HPM_P1;HPM_P2
2023/10/11 00:02:56;;;;;;;0.90;0.50;;;12.30;99.90;;;;;;5015048;28;20186;-82
2023/10/11 00:05:25;;;;;;;9.10;2.10;;;12.40;99.90;;;;;;5011495;28;20264;-84
2023/10/11 00:07:57;;;;;;;1.33;1.25;;;12.40;99.90;;;;;;5008589;28;20441;-84
2023/10/11 00:10:23;;;;;;;1.23;1.23;;;12.50;99.90;;;;;;5010369;28;20190;-83
2023/10/11 00:12:50;;;;;;;4.43;2.57;;;13.30;99.90;;;;;;5012564;28;20262;-82
2023/10/11 00:15:16;;;;;;;1.90;0.60;;;12.60;99.90;;;;;;5016772;28;20608;-84
2023/10/11 00:17:46;;;;;;;2.15;1.33;;;12.60;99.90;;;;;;5010922;28;20271;-82
2023/10/11 00:20:28;;;;;;;0.70;0.70;;;12.60;99.90;;;;;;5013810;28;20197;-83
2023/10/11 00:22:54;;;;;;;1.10;1.00;;;12.60;99.90;;;;;;5008866;28;20269;-81
2023/10/11 00:25:24;;;;;;;0.40;0.20;;;12.50;99.90;;;;;;5012676;28;20266;-80
2023/10/11 00:27:53;;;;;;;0.40;0.30;;;12.50;99.90;;;;;;5016336;28;20479;-82
2023/10/11 00:30:21;;;;;;;0.60;0.40;;;12.50;99.90;;;;;;5014509;28;20194;-82
2023/10/11 00:32:46;;;;;;;0.77;0.75;;;12.50;99.90;;;;;;5012376;28;20723;-81
2023/10/11 00:35:18;;;;;;;0.90;0.40;;;12.70;99.90;;;;;;5018301;28;20288;-82
2023/10/11 00:37:44;;;;;;;0.40;0.20;;;12.70;99.90;;;;;;5013877;28;20206;-81
2023/10/11 00:40:14;;;;;;;0.40;0.30;;;12.80;99.90;;;;;;5028144;28;20191;-81
2023/10/11 00:42:40;;;;;;;0.50;0.45;;;12.80;99.90;;;;;;5028580;28;20198;-80
2023/10/11 00:45:08;;;;;;;0.40;0.30;;;12.80;99.90;;;;;;5016113;28;20214;-80
2023/10/11 00:47:40;;;;;;;0.75;0.75;;;12.90;99.90;;;;;;5014211;28;20517;-80
2023/10/11 00:50:09;;;;;;;0.40;0.30;;;12.80;99.90;;;;;;5013919;28;20261;-79
2023/10/11 00:52:34;;;;;;;1.35;1.10;;;12.90;99.90;;;;;;5013403;28;20183;-80
2023/10/11 00:55:00;;;;;;;0.50;0.40;;;12.90;99.90;;;;;;5027861;28;20206;-80
2023/10/11 00:57:27;;;;;;;1.50;0.50;;;12.80;99.90;;;;;;5008354;28;20455;-83
2023/10/11 00:59:53;;;;;;;1.05;0.85;;;12.90;99.90;;;;;;5008836;28;20193;-84
2023/10/11 01:02:18;;;;;;;0.53;0.53;;;12.90;99.90;;;;;;5007368;28;20191;-85
2023/10/11 01:04:44;;;;;;;0.80;0.80;;;12.80;99.90;;;;;;5008570;28;20210;-85
2023/10/11 01:07:11;;;;;;;2.70;2.40;;;12.80;99.90;;;;;;5010095;28;20206;-85
2023/10/11 01:09:37;;;;;;;2.35;0.73;;;12.80;99.90;;;;;;5005084;28;20210;-84
2023/10/11 01:12:03;;;;;;;2.35;2.15;;;12.70;99.90;;;;;;5008932;28;20278;-84
2023/10/11 01:14:36;;;;;;;0.40;0.30;;;12.60;99.90;;;;;;5010941;28;20218;-85
2023/10/11 01:17:02;;;;;;;2.67;0.77;;;12.60;99.90;;;;;;5008056;28;20292;-85
2023/10/11 01:19:27;;;;;;;0.40;0.40;;;15.60;99.90;;;;;;5006947;28;20229;-85
2023/10/11 01:21:59;;;;;;;1.20;1.13;;;12.50;99.90;;;;;;5006950;28;20205;-85
2023/10/11 01:24:24;;;;;;;2.03;1.83;;;12.40;99.90;;;;;;5009592;28;20217;-85
2023/10/11 01:26:50;;;;;;;0.73;0.70;;;;;;;;;;5010217;28;20206;-85
2023/10/11 01:29:16;;;;;;;0.40;0.33;;;12.20;99.90;;;;;;5005245;28;20430;-85
2023/10/11 01:31:42;;;;;;;0.83;0.80;;;12.20;99.90;;;;;;5006037;28;20548;-85
2023/10/11 01:34:13;;;;;;;4.43;2.60;;;12.20;99.90;;;;;;5007670;28;20461;-84
2023/10/11 01:36:39;;;;;;;0.40;0.30;;;12.20;99.90;;;;;;5010060;28;20206;-84
2023/10/11 01:39:08;;;;;;;0.65;0.63;;;12.10;99.90;;;;;;5020704;28;20197;-85
2023/10/11 01:41:33;;;;;;;0.55;0.50;;;12.10;99.90;;;;;;5004886;28;20183;-84
2023/10/11 01:43:59;;;;;;;0.57;0.53;;;12.10;99.90;;;;;;5008778;28;20313;-85
2023/10/11 01:46:27;;;;;;;1.07;0.93;;;12.10;99.90;;;;;;5010420;28;20264;-84
2023/10/11 01:48:56;;;;;;;0.73;0.73;;;12.10;99.90;;;;;;5008776;28;20175;-85
2023/10/11 01:51:28;;;;;;;1.77;1.67;;;12.20;99.90;;;;;;5008542;28;20201;-83
2023/10/11 01:54:04;;;;;;;0.50;0.40;;;12.30;99.90;;;;;;5003831;28;20203;-84
2023/10/11 01:56:30;;;;;;;3.40;1.10;;;12.30;99.90;;;;;;5008309;28;20507;-84
2023/10/11 01:58:56;;;;;;;0.50;0.40;;;12.30;99.90;;;;;;5023070;28;20591;-83
2023/10/11 02:01:26;;;;;;;2.35;0.73;;;12.40;99.90;;;;;;5008992;28;20190;-84
2023/10/11 02:03:58;;;;;;;0.40;0.30;;;12.40;99.90;;;;;;5009032;28;20182;-85
2023/10/11 02:06:25;;;;;;;1.45;0.50;;;12.40;99.90;;;;;;5006383;28;20210;-86
2023/10/11 02:08:51;;;;;;;0.40;0.30;;;12.40;99.90;;;;;;5007555;28;20191;-84
2023/10/11 02:11:23;;;;;;;0.77;0.65;;;12.50;99.90;;;;;;5023617;28;20194;-85
2023/10/11 02:13:49;;;;;;;0.82;0.73;;;12.50;99.90;;;;;;5008719;28;20186;-84
2023/10/11 02:16:15;;;;;;;1.98;0.40;;;12.60;99.90;;;;;;5008582;28;20213;-85
2023/10/11 02:18:41;;;;;;;1.30;1.20;;;12.50;99.90;;;;;;5007155;28;20190;-84
2023/10/11 02:21:07;;;;;;;0.40;0.20;;;12.50;99.90;;;;;;5008422;28;20729;-85
2023/10/11 02:23:39;;;;;;;0.87;0.87;;;12.50;99.90;;;;;;5011294;28;20449;-85
2023/10/11 02:26:12;;;;;;;0.97;0.60;;;12.40;99.90;;;;;;5011917;28;20750;-86
2023/10/11 02:28:39;;;;;;;0.40;0.28;;;12.50;99.90;;;;;;5012144;28;20511;-86
2023/10/11 02:31:05;;;;;;;1.52;1.42;;;12.50;99.90;;;;;;5009637;28;20179;-85
2023/10/11 02:33:33;;;;;;;0.70;0.52;;;;;;;;;;5012736;28;22287;-85
2023/10/11 02:36:08;;;;;;;0.40;0.20;;;12.50;99.90;;;;;;5025839;28;20204;-85
2023/10/11 02:38:41;;;;;;;0.40;0.30;;;12.60;99.90;;;;;;5009826;28;20435;-86
2023/10/11 02:41:07;;;;;;;0.60;0.50;;;12.50;99.90;;;;;;5008103;28;20492;-85
2023/10/11 02:43:33;;;;;;;0.40;0.20;;;12.50;99.90;;;;;;5006963;28;20662;-86
2023/10/11 02:45:59;;;;;;;1.30;0.77;;;12.50;99.90;;;;;;5009804;28;20501;-85
2023/10/11 02:48:27;;;;;;;0.40;0.30;;;13.20;99.90;;;;;;5008273;28;20444;-84
2023/10/11 02:50:57;;;;;;;0.40;0.30;;;;;;;;;;5009968;28;20480;-86
2023/10/11 02:53:22;;;;;;;0.60;0.57;;;12.30;99.90;;;;;;5007428;28;20217;-85
2023/10/11 02:55:57;;;;;;;0.60;0.50;;;12.20;99.90;;;;;;5003394;28;20203;-86
2023/10/11 02:58:29;;;;;;;0.40;0.32;;;12.30;99.90;;;;;;5006608;28;20174;-86
2023/10/11 03:01:02;;;;;;;0.50;0.47;;;12.20;99.90;;;;;;5005211;28;20174;-85
2023/10/11 03:03:28;;;;;;;1.30;0.70;;;12.10;99.90;;;;;;5005304;28;20630;-85
2023/10/11 03:05:55;;;;;;;0.40;0.30;;;12.00;99.90;;;;;;5005400;28;20249;-85
2023/10/11 03:08:21;;;;;;;0.40;0.28;;;12.00;99.90;;;;;;5004764;28;20511;-85
2023/10/11 03:10:56;;;;;;;1.20;0.85;;;12.00;99.90;;;;;;5008576;28;20189;-83
2023/10/11 03:13:41;;;;;;;0.77;0.77;;;12.00;99.90;;;;;;5005351;28;20204;-84
2023/10/11 03:16:13;;;;;;;0.60;0.50;;;11.90;99.90;;;;;;5005396;28;20210;-85
2023/10/11 03:18:39;;;;;;;0.43;0.35;;;11.90;99.90;;;;;;5003283;28;20186;-84
2023/10/11 03:21:19;;;;;;;0.40;0.20;;;11.90;99.90;;;;;;5003920;28;20186;-83
2023/10/11 03:23:49;;;;;;;0.50;0.40;;;11.90;99.90;;;;;;5004520;28;20206;-84
2023/10/11 03:29:03;;;;;;;0.40;0.20;;;11.80;99.90;;;;;;5004496;28;20179;-83
2023/10/11 03:31:31;;;;;;;0.65;0.65;;;11.70;99.90;;;;;;5004372;28;20182;-84
2023/10/11 03:33:59;;;;;;;0.40;0.20;;;11.60;99.90;;;;;;5006310;28;20217;-84
2023/10/11 03:36:43;;;;;;;7.35;1.15;;;11.50;99.90;;;;;;5006857;28;21265;-86
2023/10/11 03:39:10;;;;;;;0.50;0.20;;;11.40;99.90;;;;;;5025667;28;20218;-86
2023/10/11 03:41:48;;;;;;;3.88;2.38;;;11.40;99.90;;;;;;5025725;28;20209;-85
2023/10/11 03:44:21;;;;;;;7.40;1.95;;;11.40;99.90;;;;;;5011216;28;20201;-86
2023/10/11 03:46:56;;;;;;;1.50;1.40;;;11.40;99.90;;;;;;5010659;28;20199;-86
2023/10/11 03:51:50;;;;;;;0.90;0.80;;;11.30;99.90;;;;;;5011117;28;20190;-86
2023/10/11 03:54:22;;;;;;;0.40;0.30;;;11.20;99.90;;;;;;5026713;28;20532;-86
2023/10/11 03:56:53;;;;;;;0.52;0.52;;;11.10;99.90;;;;;;5026919;28;20556;-88
2023/10/11 03:59:26;;;;;;;1.05;0.85;;;11.10;99.90;;;;;;5013059;28;20189;-85
2023/10/11 04:01:53;;;;;;;0.40;0.35;;;11.10;99.90;;;;;;5011581;28;20182;-86
2023/10/11 04:04:22;;;;;;;3.83;2.08;;;10.90;99.90;;;;;;5024929;28;20186;-85
2023/10/11 04:06:51;;;;;;;0.40;0.20;;;10.90;99.90;;;;;;5009159;28;20206;-85
2023/10/11 04:09:32;;;;;;;0.50;0.50;;;10.90;99.90;;;;;;5027175;28;20727;-84
2023/10/11 04:12:00;;;;;;;0.40;0.30;;;10.90;99.90;;;;;;5027915;28;20564;-85
2023/10/11 04:14:45;;;;;;;0.40;0.20;;;10.90;99.90;;;;;;5013969;28;20173;-84
2023/10/11 04:22:59;;;;;;;1.98;0.40;;;11.60;99.90;;;;;;5012759;28;20237;-85
2023/10/11 04:25:26;;;;;;;0.50;0.40;;;11.00;99.90;;;;;;5012204;28;20991;-86
2023/10/11 04:27:57;;;;;;;0.40;0.30;;;11.00;99.90;;;;;;5030960;28;20205;-81
2023/10/11 04:30:26;;;;;;;0.40;0.20;;;11.00;99.90;;;;;;5027358;28;20531;-86
2023/10/11 04:32:56;;;;;;;0.40;0.20;;;10.90;99.90;;;;;;5022469;28;20249;-83
2023/10/11 04:35:25;;;;;;;0.40;0.20;;;11.10;99.90;;;;;;5011256;28;20289;-85
2023/10/11 04:38:01;;;;;;;0.40;0.30;;;11.10;99.90;;;;;;5018390;28;20179;-84
2023/10/11 04:43:40;;;;;;;0.60;0.60;;;11.10;99.90;;;;;;5008455;28;20553;-84
2023/10/11 04:46:07;;;;;;;0.40;0.20;;;11.00;99.90;;;;;;5011318;28;20218;-86
2023/10/11 04:48:36;;;;;;;1.13;0.98;;;;;;;;;;5011054;28;20178;-85
2023/10/11 04:53:56;;;;;;;0.60;0.52;;;11.00;99.90;;;;;;5014150;28;20175;-86
2023/10/11 04:59:11;;;;;;;0.40;0.30;;;10.90;99.90;;;;;;5013689;28;20264;-86
2023/10/11 05:04:16;;;;;;;0.40;0.20;;;10.70;99.90;;;;;;5018464;28;20201;-85
2023/10/11 05:06:43;;;;;;;0.40;0.30;;;10.70;99.90;;;;;;5033201;28;20191;-86
2023/10/11 05:09:56;;;;;;;0.40;0.20;;;10.60;99.90;;;;;;5014537;28;20189;-86
2023/10/11 05:14:40;;;;;;;0.40;0.30;;;10.50;99.90;;;;;;5015448;28;20273;-85
2023/10/11 05:22:49;;;;;;;0.40;0.20;;;10.60;99.90;;;;;;5014533;28;20178;-85
2023/10/11 05:27:49;;;;;;;0.40;0.30;;;10.60;99.90;;;;;;5015876;28;20264;-86
2023/10/11 05:30:28;;;;;;;0.40;0.35;;;10.60;99.90;;;;;;5006435;28;20269;-86
2023/10/11 05:32:58;;;;;;;0.40;0.22;;;10.60;99.90;;;;;;5017861;28;20265;-86
2023/10/11 05:35:53;;;;;;;0.40;0.40;;;10.60;99.90;;;;;;5014914;28;20237;-85
2023/10/11 05:52:16;;;;;;;0.40;0.30;;;10.50;99.90;;;;;;5016905;28;20186;-86
2023/10/11 05:54:43;;;;;;;0.40;0.20;;;10.50;99.90;;;;;;5010056;28;20828;-85
2023/10/11 05:57:08;;;;;;;0.40;0.20;;;10.60;99.90;;;;;;5013254;28;20202;-85
2023/10/11 05:59:35;;;;;;;0.60;0.60;;;11.00;99.90;;;;;;5008656;28;20186;-85
2023/10/11 06:02:07;;;;;;;1.30;0.95;;;11.00;99.90;;;;;;5013828;28;20179;-86
2023/10/11 06:04:39;;;;;;;0.40;0.30;;;11.00;99.90;;;;;;5013535;28;20205;-85
2023/10/11 06:07:12;;;;;;;0.50;0.30;;;11.20;99.90;;;;;;5017576;28;20255;-85
2023/10/11 06:09:46;;;;;;;0.40;0.20;;;;;;;;;;5011816;28;20688;-86
2023/10/11 06:12:26;;;;;;;0.40;0.20;;;11.40;99.90;;;;;;5012074;28;20233;-85
2023/10/11 06:15:03;;;;;;;0.98;0.93;;;11.80;99.90;;;;;;5010362;28;20543;-86
2023/10/11 06:17:41;;;;;;;0.52;0.50;;;12.50;99.90;;;;;;5011278;28;20197;-86
2023/10/11 06:20:27;;;;;;;0.57;0.52;;;12.70;99.90;;;;;;5014802;28;20174;-86
2023/10/11 06:22:57;;;;;;;0.70;0.57;;;14.10;99.90;;;;;;5015737;28;20272;-86
2023/10/11 06:25:40;;;;;;;0.40;0.20;;;16.80;99.90;;;;;;5028383;28;20457;-86
2023/10/11 06:28:13;;;;;;;2.73;1.07;;;;;;;;;;5013282;28;20798;-86
2023/10/11 06:30:43;;;;;;;2.43;1.23;;;18.70;99.90;;;;;;5028442;28;20491;-86
2023/10/11 06:33:12;;;;;;;0.50;0.47;;;19.20;99.90;;;;;;5014125;28;20425;-86
2023/10/11 06:35:43;;;;;;;0.43;0.40;;;20.00;99.90;;;;;;5027496;28;20513;-86
2023/10/11 06:38:09;;;;;;;1.23;1.13;;;;;;;;;;5015679;28;20437;-86
2023/10/11 06:40:39;;;;;;;0.40;0.30;;;21.20;99.90;;;;;;5010921;28;20441;-85
2023/10/11 06:43:12;;;;;;;0.40;0.30;;;22.00;99.90;;;;;;5028044;28;20688;-85
2023/10/11 06:45:40;;;;;;;2.03;1.90;;;;;;;;;;5010034;28;20481;-86
2023/10/11 06:48:06;;;;;;;1.13;1.07;;;;;;;;;;5009997;28;20418;-86
2023/10/11 06:50:36;;;;;;;0.40;0.30;;;23.90;99.90;;;;;;5027883;28;20425;-86
2023/10/11 06:53:07;;;;;;;1.33;1.07;;;24.20;99.90;;;;;;5010494;28;20432;-86
2023/10/11 06:55:40;;;;;;;2.03;1.73;;;24.20;99.90;;;;;;5029299;28;20449;-86
2023/10/11 07:00:37;;;;;;;2.10;2.00;;;24.10;99.90;;;;;;5051156;28;20851;-84
2023/10/11 07:05:42;;;;;;;1.23;0.77;;;25.00;99.00;;;;;;5048191;28;20609;-79
2023/10/11 07:08:11;;;;;;;0.90;0.50;;;25.50;97.30;;;;;;5029200;28;20465;-83
2023/10/11 07:10:45;;;;;;;0.40;0.30;;;25.80;96.20;;;;;;5052298;28;20443;-80
2023/10/11 07:13:13;;;;;;;2.10;1.60;;;25.90;96.00;;;;;;5035700;28;20493;-84
2023/10/11 07:15:43;;;;;;;2.27;0.90;;;26.20;94.30;;;;;;5046691;28;20488;-77
2023/10/11 07:18:21;;;;;;;0.70;0.70;;;26.00;93.80;;;;;;5061159;28;20445;-79
2023/10/11 07:20:58;;;;;;;3.37;1.40;;;26.40;93.10;;;;;;5049591;28;20442;-79
2023/10/11 07:23:26;;;;;;;1.77;1.67;;;26.40;92.80;;;;;;5032976;28;20480;-81
2023/10/11 07:28:50;;;;;;;1.03;0.57;;;26.30;92.50;;;;;;5023344;28;20462;-78
2023/10/11 07:31:16;;;;;;;0.90;0.67;;;26.60;91.30;;;;;;5050708;28;20443;-80
2023/10/11 07:33:43;;;;;;;0.77;0.77;;;26.60;91.20;;;;;;5033341;28;20496;-83
2023/10/11 07:36:11;;;;;;;3.07;1.47;;;27.30;90.40;;;;;;5031751;28;20478;-83
2023/10/11 07:38:43;;;;;;;2.30;2.13;;;27.40;88.70;;;;;;5031718;28;20456;-80
2023/10/11 07:41:17;;;;;;;4.60;1.13;;;27.40;87.00;;;;;;5049561;28;20922;-82
2023/10/11 07:43:45;;;;;;;0.87;0.63;;;27.10;87.00;;;;;;5048488;28;20457;-86
2023/10/11 07:46:11;;;;;;;1.50;0.80;;;27.20;88.00;;;;;;5031692;28;20469;-78
2023/10/11 07:48:39;;;;;;;0.87;0.87;;;27.50;88.00;;;;;;5047927;28;20455;-80
2023/10/11 07:51:10;;;;;;;2.30;1.20;;;27.50;86.80;;;;;;5030743;28;20438;-83
2023/10/11 07:53:41;;;;;;;0.70;0.60;;;26.50;86.70;;;;;;5045010;28;20474;-83
2023/10/11 07:56:07;;;;;;;2.60;2.10;;;26.30;87.80;;;;;;5051806;28;20439;-82
2023/10/11 07:58:33;;;;;;;1.40;0.80;;;25.70;90.50;;;;;;5047116;28;20433;-79
2023/10/11 08:01:15;;;;;;;1.93;1.83;;;25.80;90.70;;;;;;5030357;28;21225;-82
2023/10/11 08:03:44;;;;;;;0.70;0.67;;;25.80;90.60;;;;;;5028359;28;20201;-79
2023/10/11 08:06:12;;;;;;;0.50;0.50;;;26.30;90.30;;;;;;5031812;28;20471;-78
2023/10/11 08:08:38;;;;;;;0.73;0.73;;;26.60;90.00;;;;;;5050836;28;20469;-80
2023/10/11 08:11:18;;;;;;;1.10;1.10;;;;;;;;;;5034830;28;20439;-79
2023/10/11 08:13:48;;;;;;;1.87;1.77;;;26.60;87.20;;;;;;5051660;28;20450;-80
2023/10/11 08:16:17;;;;;;;2.53;2.37;;;27.10;87.90;;;;;;5049163;28;20442;-78
2023/10/11 08:18:46;;;;;;;2.20;0.97;;;27.40;85.70;;;;;;5050434;28;21003;-83
2023/10/11 08:21:12;;;;;;;1.13;1.07;;;;;;;;;;5050816;28;20449;-84
2023/10/11 08:23:42;;;;;;;4.50;1.67;;;26.80;87.70;;;;;;5047604;28;20460;-83
2023/10/11 08:26:14;;;;;;;1.17;1.07;;;26.70;89.60;;;;;;5047863;28;20536;-80
2023/10/11 08:28:48;;;;;;;2.30;1.80;;;26.10;88.00;;;;;;5047564;28;20448;-84
2023/10/11 08:34:00;;;;;;;0.90;0.90;;;26.30;88.80;;;;;;5048100;28;20549;-79
2023/10/11 08:36:29;;;;;;;0.97;0.90;;;26.90;88.00;;;;;;5035662;28;20500;-84
2023/10/11 08:38:56;;;;;;;0.60;0.40;;;28.00;87.30;;;;;;5048453;28;20174;-82
2023/10/11 08:41:22;;;;;;;0.83;0.70;;;30.30;81.70;;;;;;5028568;28;20436;-82
2023/10/11 08:43:49;;;;;;;1.23;1.13;;;30.10;79.10;;;;;;5047831;28;20455;-83
2023/10/11 08:46:18;;;;;;;0.60;0.50;;;30.80;78.30;;;;;;5029216;28;20497;-82
2023/10/11 08:48:49;;;;;;;1.90;1.70;;;31.00;75.20;;;;;;5047497;28;20468;-81
2023/10/11 08:51:20;;;;;;;1.23;1.13;;;31.70;74.20;;;;;;5029081;28;20506;-81
2023/10/11 08:53:47;;;;;;;1.43;1.33;;;30.80;72.40;;;;;;5046098;28;20468;-79
2023/10/11 08:56:16;;;;;;;1.13;1.03;;;29.50;74.30;;;;;;5041761;28;20450;-81
2023/10/11 08:58:42;;;;;;;1.93;1.83;;;;;;;;;;5027034;28;20452;-85
2023/10/11 09:01:08;;;;;;;1.00;1.00;;;29.20;73.80;;;;;;5023722;28;20493;-82
2023/10/11 09:03:40;;;;;;;2.97;1.53;;;28.20;78.10;;;;;;5029348;28;21231;-79
2023/10/11 09:06:25;;;;;;;0.60;0.60;;;27.90;80.30;;;;;;5045570;28;20879;-82
2023/10/11 09:08:51;;;;;;;1.00;0.80;;;;;;;;;;5048917;28;20430;-78
2023/10/11 09:11:41;;;;;;;1.33;1.07;;;;;;;;;;5063211;28;20443;-79
2023/10/11 09:14:11;;;;;;;1.33;1.23;;;28.40;74.30;;;;;;5055826;28;20528;-82
2023/10/11 09:16:37;;;;;;;0.70;0.70;;;;;;;;;;5031340;28;20593;-83
2023/10/11 09:19:06;;;;;;;1.90;1.80;;;30.20;71.70;;;;;;5050808;28;20710;-81
2023/10/11 09:21:35;;;;;;;3.37;1.60;;;31.20;70.90;;;;;;5046443;28;20444;-82
2023/10/11 09:24:01;;;;;;;1.30;1.30;;;32.20;67.00;;;;;;5017920;28;20454;-85
2023/10/11 09:26:34;;;;;;;1.93;1.83;;;32.20;64.90;;;;;;5027354;28;20476;-79
2023/10/11 09:29:02;;;;;;;2.57;2.27;;;31.20;65.30;;;;;;5021259;28;20438;-82
2023/10/11 09:31:32;;;;;;;1.93;1.83;;;30.70;67.50;;;;;;5044267;28;20429;-78
2023/10/11 09:34:07;;;;;;;2.73;2.07;;;30.60;66.90;;;;;;5054425;28;20544;-83
2023/10/11 09:36:34;;;;;;;4.70;2.00;;;;;;;;;;5046069;28;20465;-82
2023/10/11 09:39:02;;;;;;;1.90;1.80;;;31.30;66.40;;;;;;5045119;28;20465;-80
2023/10/11 09:41:39;;;;;;;10.53;2.00;;;31.30;67.20;;;;;;5034259;28;20536;-80
2023/10/11 09:44:07;;;;;;;1.93;1.80;;;32.30;65.90;;;;;;5030428;28;20487;-82
2023/10/11 09:46:34;;;;;;;4.40;3.47;;;32.70;63.50;;;;;;5041383;28;20469;-78
2023/10/11 09:49:01;;;;;;;2.50;2.30;;;31.90;65.20;;;;;;5043881;28;20455;-80
2023/10/11 09:51:27;;;;;;;6.60;3.63;;;30.50;67.50;;;;;;5038628;28;20474;-81
2023/10/11 09:53:53;;;;;;;1.77;1.63;;;29.00;70.80;;;;;;5042694;28;20470;-82
2023/10/11 09:56:54;;;;;;;1.83;1.70;;;27.90;75.50;;;;;;5046726;28;22168;-81
2023/10/11 09:59:48;;;;;;;1.93;1.50;;;26.60;80.30;;;;;;5030918;28;20478;-83
2023/10/11 10:02:37;;;;;;;2.60;1.63;;;25.50;87.50;;;;;;5044945;28;20955;-80
2023/10/11 10:05:06;;;;;;;2.10;0.80;;;25.40;88.00;;;;;;5043248;28;20879;-80
2023/10/11 10:10:15;;;;;;;1.90;0.70;;;24.60;91.80;;;;;;5046191;28;20464;-80
2023/10/11 10:12:54;;;;;;;0.50;0.40;;;24.40;92.40;;;;;;5047703;28;20430;-81
2023/10/11 10:15:23;;;;;;;1.77;0.90;;;24.30;93.10;;;;;;5050257;28;20456;-82
2023/10/11 10:18:00;;;;;;;0.57;0.40;;;24.00;95.80;;;;;;5031825;28;20465;-81
2023/10/11 10:20:34;;;;;;;3.33;1.57;;;24.00;95.80;;;;;;5053010;28;20466;-76
2023/10/11 10:23:15;;;;;;;0.80;0.70;;;24.20;95.10;;;;;;5051907;28;20464;-82
2023/10/11 10:25:48;;;;;;;1.30;1.13;;;24.30;95.50;;;;;;5057499;28;20478;-76
2023/10/11 10:28:34;;;;;;;0.80;0.80;;;24.30;95.20;;;;;;5035164;28;20440;-78
2023/10/11 10:31:09;;;;;;;0.63;0.63;;;24.20;94.40;;;;;;5030666;28;20523;-83
2023/10/11 10:33:42;;;;;;;1.10;1.00;;;24.10;94.60;;;;;;5031124;28;20465;-83
2023/10/11 10:36:28;;;;;;;1.57;0.93;;;24.20;93.50;;;;;;5045454;28;20444;-81
2023/10/11 10:39:00;;;;;;;0.60;0.60;;;24.50;92.90;;;;;;5048192;28;20472;-83
2023/10/11 10:41:30;;;;;;;0.60;0.40;;;24.80;91.80;;;;;;5045263;28;20441;-80
2023/10/11 10:44:08;;;;;;;0.80;0.70;;;25.10;90.80;;;;;;5023659;28;20457;-80
2023/10/11 10:46:35;;;;;;;10.67;1.33;;;26.00;90.50;;;;;;5041124;28;21034;-79
2023/10/11 10:49:02;;;;;;;0.70;0.70;;;25.20;88.70;;;;;;5024504;28;20500;-78
2023/10/11 10:51:35;;;;;;;1.97;1.27;;;25.20;88.30;;;;;;5044242;28;20440;-83
2023/10/11 10:54:12;;;;;;;1.43;1.33;;;26.10;87.50;;;;;;5027336;28;20472;-81
2023/10/11 10:56:39;;;;;;;0.90;0.90;;;25.50;85.30;;;;;;5040874;28;20445;-79
2023/10/11 10:59:11;;;;;;;0.50;0.30;;;25.70;82.70;;;;;;5047862;28;20452;-81
2023/10/11 11:01:38;;;;;;;1.27;1.17;;;25.60;81.00;;;;;;5041849;28;20451;-80
2023/10/11 11:04:08;;;;;;;0.73;0.60;;;25.40;82.00;;;;;;5043621;28;20472;-83
2023/10/11 11:06:44;;;;;;;1.30;1.20;;;24.90;80.70;;;;;;5026332;28;20472;-81
2023/10/11 11:09:14;;;;;;;0.50;0.40;;;24.70;81.50;;;;;;5041566;28;20436;-82
2023/10/11 11:11:41;;;;;;;1.47;0.60;;;25.00;82.00;;;;;;5050922;28;20461;-83
2023/10/11 11:14:11;;;;;;;0.67;0.67;;;24.80;82.00;;;;;;5021653;28;20469;-80
2023/10/11 11:16:41;;;;;;;0.50;0.40;;;25.50;82.10;;;;;;5028583;28;22094;-80
2023/10/11 11:19:25;;;;;;;0.50;0.40;;;25.30;81.80;;;;;;5048678;28;20457;-85
2023/10/11 11:22:02;;;;;;;1.60;1.07;;;25.00;80.40;;;;;;5026390;28;21146;-79
2023/10/11 11:24:34;;;;;;;0.73;0.57;;;25.00;81.50;;;;;;5022227;28;20467;-83
2023/10/11 11:27:06;;;;;;;0.50;0.40;;;25.10;82.20;;;;;;5030573;28;20467;-76
2023/10/11 11:29:32;;;;;;;0.60;0.60;;;25.30;83.10;;;;;;5029422;28;20470;-80
2023/10/11 11:31:59;;;;;;;0.57;0.40;;;25.30;81.10;;;;;;5028783;28;20451;-80
2023/10/11 11:34:34;;;;;;;0.77;0.43;;;25.20;81.40;;;;;;5027952;28;20477;-84
2023/10/11 11:37:04;;;;;;;0.70;0.40;;;25.30;81.80;;;;;;5028063;28;20446;-81
2023/10/11 11:39:39;;;;;;;2.77;1.00;;;;;;;;;;5042454;28;20452;-81
2023/10/11 11:42:17;;;;;;;1.23;1.13;;;25.00;79.80;;;;;;5046759;28;20428;-79
2023/10/11 11:44:43;;;;;;;0.60;0.43;;;25.00;81.50;;;;;;5036789;28;20541;-85
2023/10/11 11:47:09;;;;;;;0.77;0.77;;;;;;;;;;5048291;28;20844;-83
2023/10/11 11:49:35;;;;;;;0.70;0.70;;;;;;;;;;5023834;28;20188;-84
2023/10/11 11:52:01;;;;;;;2.00;0.50;;;25.20;80.50;;;;;;5046507;28;20436;-82
2023/10/11 11:54:29;;;;;;;1.40;0.90;;;25.30;81.20;;;;;;5045333;28;20462;-81
2023/10/11 11:56:56;;;;;;;1.07;0.80;;;25.30;79.30;;;;;;5051104;28;20193;-83
2023/10/11 11:59:23;;;;;;;0.90;0.50;;;25.00;79.60;;;;;;5044019;28;20469;-82
2023/10/11 12:01:53;;;;;;;1.23;1.13;;;25.20;80.50;;;;;;5046260;28;20933;-80
2023/10/11 12:04:33;;;;;;;0.57;0.40;;;25.20;81.00;;;;;;5021185;28;20469;-80
2023/10/11 12:07:04;;;;;;;0.50;0.40;;;25.10;79.60;;;;;;5045117;28;20446;-79
2023/10/11 12:09:32;;;;;;;0.50;0.40;;;25.30;80.20;;;;;;5039900;28;20472;-82
2023/10/11 12:12:05;;;;;;;0.50;0.40;;;25.40;79.80;;;;;;5028110;28;20981;-83
2023/10/11 12:14:37;;;;;;;0.50;0.50;;;25.20;79.80;;;;;;5047035;28;20459;-82
2023/10/11 12:17:09;;;;;;;2.80;1.00;;;25.20;80.60;;;;;;5049660;28;20479;-87
2023/10/11 12:19:40;;;;;;;0.83;0.50;;;25.10;80.60;;;;;;5040069;28;20439;-78
2023/10/11 12:22:07;;;;;;;0.50;0.40;;;;;;;;;;5038881;28;20471;-81
2023/10/11 12:24:33;;;;;;;0.60;0.60;;;25.10;79.10;;;;;;5047034;28;20466;-79
2023/10/11 12:26:59;;;;;;;0.77;0.30;;;25.30;81.30;;;;;;5045999;28;20450;-79
2023/10/11 12:29:26;;;;;;;0.50;0.47;;;25.30;79.50;;;;;;5056268;28;20445;-81
2023/10/11 12:31:55;;;;;;;1.00;0.50;;;25.10;78.70;;;;;;5037428;28;20181;-79
2023/10/11 12:34:27;;;;;;;0.50;0.40;;;25.10;77.70;;;;;;5035257;28;20500;-79
2023/10/11 12:36:53;;;;;;;0.90;0.40;;;25.10;77.20;;;;;;5029000;28;20542;-78
2023/10/11 12:39:29;;;;;;;1.30;1.20;;;25.10;78.30;;;;;;5043220;28;21072;-85
2023/10/11 12:41:55;;;;;;;0.40;0.40;;;25.10;76.30;;;;;;5023487;28;20803;-85
2023/10/11 12:44:22;;;;;;;0.40;0.30;;;25.20;76.90;;;;;;5045114;28;20466;-80
2023/10/11 12:46:49;;;;;;;0.90;0.90;;;25.10;78.50;;;;;;5012979;28;20477;-82
2023/10/11 12:49:16;;;;;;;0.50;0.40;;;25.30;78.30;;;;;;5048759;28;20476;-78
2023/10/11 12:51:44;;;;;;;0.50;0.40;;;25.50;79.20;;;;;;5036308;28;20489;-81
2023/10/11 12:54:14;;;;;;;1.27;1.03;;;25.90;78.70;;;;;;5049391;28;20547;-82
2023/10/11 12:56:42;;;;;;;0.77;0.40;;;25.70;73.60;;;;;;5045370;28;20520;-82
2023/10/11 12:59:15;;;;;;;0.60;0.50;;;25.30;75.20;;;;;;5053304;28;20475;-80
2023/10/11 13:01:55;;;;;;;1.77;0.50;;;25.30;75.80;;;;;;5029127;28;20523;-81
2023/10/11 13:04:29;;;;;;;1.13;1.03;;;25.60;77.60;;;;;;5027136;28;20752;-85
2023/10/11 13:06:55;;;;;;;0.47;0.43;;;25.90;78.30;;;;;;5031609;28;20484;-77
2023/10/11 13:09:27;;;;;;;0.50;0.30;;;25.90;77.20;;;;;;5043887;28;20445;-81
2023/10/11 13:12:02;;;;;;;1.43;0.60;;;26.00;76.40;;;;;;5031842;28;20448;-79
2023/10/11 13:14:28;;;;;;;2.30;1.10;;;25.30;77.10;;;;;;5022848;28;20836;-81
2023/10/11 13:16:55;;;;;;;0.70;0.60;;;25.20;78.10;;;;;;5050400;28;20456;-80
2023/10/11 13:19:24;;;;;;;1.13;0.60;;;25.10;76.20;;;;;;5048350;28;20195;-79
2023/10/11 13:21:53;;;;;;;0.50;0.43;;;25.20;76.60;;;;;;5045794;28;20526;-81
2023/10/11 13:24:22;;;;;;;1.07;0.70;;;25.20;77.00;;;;;;5043482;28;20500;-80
2023/10/11 13:26:54;;;;;;;0.50;0.30;;;25.10;74.90;;;;;;5024614;28;20475;-84
2023/10/11 13:29:21;;;;;;;0.50;0.30;;;25.10;74.90;;;;;;5027774;28;20514;-79
2023/10/11 13:31:53;;;;;;;0.80;0.80;;;25.10;75.60;;;;;;5030815;28;20885;-82
2023/10/11 13:34:19;;;;;;;0.70;0.67;;;25.20;77.00;;;;;;5044541;28;20462;-83
2023/10/11 13:36:45;;;;;;;0.50;0.30;;;25.40;76.60;;;;;;5038558;28;20515;-80
2023/10/11 13:39:26;;;;;;;0.50;0.40;;;25.40;75.70;;;;;;5048719;28;21233;-83
2023/10/11 13:42:09;;;;;;;0.97;0.70;;;25.40;75.90;;;;;;5023635;28;20458;-84
2023/10/11 13:44:37;;;;;;;1.40;0.70;;;25.50;74.50;;;;;;5060318;28;20458;-78
2023/10/11 13:47:03;;;;;;;0.47;0.30;;;25.30;75.00;;;;;;5034436;28;20463;-85
2023/10/11 13:49:33;;;;;;;0.50;0.40;;;25.30;75.40;;;;;;5045751;28;20444;-82
2023/10/11 13:52:02;;;;;;;0.40;0.30;;;25.10;74.70;;;;;;5044036;28;21135;-82
2023/10/11 13:54:36;;;;;;;0.60;0.47;;;25.00;74.20;;;;;;5023980;28;21037;-78
2023/10/11 13:57:15;;;;;;;0.87;0.87;;;24.90;73.00;;;;;;5037865;28;20464;-77
2023/10/11 13:59:47;;;;;;;1.33;1.23;;;;;;;;;;5025570;28;20525;-81
2023/10/11 14:05:13;;;;;;;0.50;0.40;;;25.00;74.60;;;;;;5039577;28;20468;-80
2023/10/11 14:10:16;;;;;;;0.70;0.70;;;25.30;74.90;;;;;;5043442;28;20452;-81
2023/10/11 14:12:42;;;;;;;0.60;0.50;;;25.40;74.70;;;;;;5047311;28;20461;-82
2023/10/11 14:15:08;;;;;;;0.50;0.40;;;25.40;74.70;;;;;;5044879;28;20458;-82
2023/10/11 14:17:38;;;;;;;1.13;1.03;;;;;;;;;;5021466;28;21621;-83